sensor_id;sensor_type;location;lat;lon;timestamp;P1;durP1;ratioP1;P2;durP2;ratioP2
14414;SDS011;7307;50.852;4.314;2022-07-30T00:02:23;6.00;;;2.50;;
14414;SDS011;7307;50.852;4.314;2022-07-30T00:04:49;5.60;;;2.65;;
14414;SDS011;7307;50.852;4.314;2022-07-30T00:07:14;4.95;;;2.45;;
14414;SDS011;7307;50.852;4.314;2022-07-30T00:09:40;5.60;;;2.67;;
14414;SDS011;7307;50.852;4.314;2022-07-30T00:12:06;3.67;;;2.55;;
14414;SDS011;7307;50.852;4.314;2022-07-30T00:14:33;5.07;;;2.60;;
14414;SDS011;7307;50.852;4.314;2022-07-30T00:16:59;6.88;;;3.20;;
14414;SDS011;7307;50.852;4.314;2022-07-30T00:19:26;8.18;;;2.40;;
14414;SDS011;7307;50.852;4.314;2022-07-30T00:21:52;6.82;;;2.70;;
14414;SDS011;7307;50.852;4.314;2022-07-30T00:24:18;4.57;;;2.15;;
14414;SDS011;7307;50.852;4.314;2022-07-30T00:26:45;6.20;;;2.78;;
14414;SDS011;7307;50.852;4.314;2022-07-30T00:29:10;8.93;;;2.65;;
14414;SDS011;7307;50.852;4.314;2022-07-30T00:31:36;5.80;;;2.88;;
14414;SDS011;7307;50.852;4.314;2022-07-30T00:34:02;7.45;;;2.97;;
14414;SDS011;7307;50.852;4.314;2022-07-30T00:36:27;8.05;;;3.20;;
14414;SDS011;7307;50.852;4.314;2022-07-30T00:38:53;7.43;;;3.50;;
14414;SDS011;7307;50.852;4.314;2022-07-30T00:41:19;4.82;;;3.13;;
14414;SDS011;7307;50.852;4.314;2022-07-30T00:43:44;8.45;;;3.75;;
14414;SDS011;7307;50.852;4.314;2022-07-30T00:46:10;7.35;;;3.63;;
14414;SDS011;7307;50.852;4.314;2022-07-30T00:48:36;6.28;;;3.72;;
14414;SDS011;7307;50.852;4.314;2022-07-30T00:51:01;10.55;;;5.05;;
14414;SDS011;7307;50.852;4.314;2022-07-30T00:53:27;7.07;;;3.30;;
14414;SDS011;7307;50.852;4.314;2022-07-30T00:55:53;6.53;;;3.35;;
14414;SDS011;7307;50.852;4.314;2022-07-30T00:58:18;5.32;;;3.38;;
14414;SDS011;7307;50.852;4.314;2022-07-30T01:00:44;7.15;;;3.42;;
14414;SDS011;7307;50.852;4.314;2022-07-30T01:03:09;6.35;;;3.58;;
14414;SDS011;7307;50.852;4.314;2022-07-30T01:05:35;5.97;;;3.50;;
14414;SDS011;7307;50.852;4.314;2022-07-30T01:08:01;6.68;;;3.03;;
14414;SDS011;7307;50.852;4.314;2022-07-30T01:10:26;9.13;;;3.20;;
14414;SDS011;7307;50.852;4.314;2022-07-30T01:12:53;5.35;;;3.25;;
14414;SDS011;7307;50.852;4.314;2022-07-30T01:15:19;5.28;;;2.97;;
14414;SDS011;7307;50.852;4.314;2022-07-30T01:17:45;7.88;;;3.38;;
14414;SDS011;7307;50.852;4.314;2022-07-30T01:20:17;6.78;;;3.63;;
14414;SDS011;7307;50.852;4.314;2022-07-30T01:22:54;5.10;;;2.85;;
14414;SDS011;7307;50.852;4.314;2022-07-30T01:28:03;6.88;;;3.50;;
14414;SDS011;7307;50.852;4.314;2022-07-30T01:30:33;5.05;;;3.15;;
14414;SDS011;7307;50.852;4.314;2022-07-30T01:33:03;8.27;;;3.05;;
14414;SDS011;7307;50.852;4.314;2022-07-30T01:35:31;5.53;;;3.17;;
14414;SDS011;7307;50.852;4.314;2022-07-30T01:37:58;7.25;;;2.85;;
14414;SDS011;7307;50.852;4.314;2022-07-30T01:40:26;6.30;;;3.60;;
14414;SDS011;7307;50.852;4.314;2022-07-30T01:42:52;5.05;;;2.90;;
14414;SDS011;7307;50.852;4.314;2022-07-30T01:45:22;7.93;;;3.88;;
14414;SDS011;7307;50.852;4.314;2022-07-30T01:47:49;8.35;;;2.97;;
14414;SDS011;7307;50.852;4.314;2022-07-30T01:50:17;6.40;;;3.40;;
14414;SDS011;7307;50.852;4.314;2022-07-30T01:52:44;6.90;;;3.05;;
14414;SDS011;7307;50.852;4.314;2022-07-30T01:55:13;6.15;;;3.28;;
14414;SDS011;7307;50.852;4.314;2022-07-30T01:57:42;5.45;;;3.53;;
14414;SDS011;7307;50.852;4.314;2022-07-30T02:00:11;7.50;;;3.15;;
14414;SDS011;7307;50.852;4.314;2022-07-30T02:02:37;7.55;;;3.20;;
14414;SDS011;7307;50.852;4.314;2022-07-30T02:05:05;6.03;;;3.03;;
14414;SDS011;7307;50.852;4.314;2022-07-30T02:08:17;8.57;;;3.20;;
14414;SDS011;7307;50.852;4.314;2022-07-30T02:10:27;5.93;;;3.42;;
14414;SDS011;7307;50.852;4.314;2022-07-30T02:13:06;6.53;;;3.38;;
14414;SDS011;7307;50.852;4.314;2022-07-30T02:15:37;5.60;;;3.28;;
14414;SDS011;7307;50.852;4.314;2022-07-30T02:20:31;7.20;;;3.50;;
14414;SDS011;7307;50.852;4.314;2022-07-30T02:23:00;6.55;;;3.25;;
14414;SDS011;7307;50.852;4.314;2022-07-30T02:25:35;7.55;;;3.80;;
14414;SDS011;7307;50.852;4.314;2022-07-30T02:28:07;7.90;;;4.03;;
14414;SDS011;7307;50.852;4.314;2022-07-30T02:30:36;6.82;;;4.00;;
14414;SDS011;7307;50.852;4.314;2022-07-30T02:33:11;7.78;;;3.28;;
14414;SDS011;7307;50.852;4.314;2022-07-30T02:35:41;6.75;;;3.70;;
14414;SDS011;7307;50.852;4.314;2022-07-30T02:38:06;7.50;;;3.80;;
14414;SDS011;7307;50.852;4.314;2022-07-30T02:40:34;5.57;;;3.80;;
14414;SDS011;7307;50.852;4.314;2022-07-30T02:43:00;8.73;;;4.07;;
14414;SDS011;7307;50.852;4.314;2022-07-30T02:45:26;5.72;;;4.28;;
14414;SDS011;7307;50.852;4.314;2022-07-30T02:47:57;7.32;;;4.03;;
14414;SDS011;7307;50.852;4.314;2022-07-30T02:50:26;5.78;;;3.97;;
14414;SDS011;7307;50.852;4.314;2022-07-30T02:52:53;8.02;;;4.00;;
14414;SDS011;7307;50.852;4.314;2022-07-30T02:55:21;7.88;;;4.47;;
14414;SDS011;7307;50.852;4.314;2022-07-30T02:57:48;5.60;;;4.00;;
14414;SDS011;7307;50.852;4.314;2022-07-30T03:00:17;7.20;;;4.45;;
14414;SDS011;7307;50.852;4.314;2022-07-30T03:02:43;10.82;;;4.85;;
14414;SDS011;7307;50.852;4.314;2022-07-30T03:05:10;7.60;;;4.63;;
14414;SDS011;7307;50.852;4.314;2022-07-30T03:07:38;9.73;;;4.82;;
14414;SDS011;7307;50.852;4.314;2022-07-30T03:10:05;8.82;;;4.97;;
14414;SDS011;7307;50.852;4.314;2022-07-30T03:12:32;7.43;;;4.68;;
14414;SDS011;7307;50.852;4.314;2022-07-30T03:14:59;7.50;;;5.32;;
14414;SDS011;7307;50.852;4.314;2022-07-30T03:17:25;7.97;;;5.13;;
14414;SDS011;7307;50.852;4.314;2022-07-30T03:19:55;7.78;;;4.60;;
14414;SDS011;7307;50.852;4.314;2022-07-30T03:22:24;6.00;;;4.78;;
14414;SDS011;7307;50.852;4.314;2022-07-30T03:24:51;10.57;;;5.03;;
14414;SDS011;7307;50.852;4.314;2022-07-30T03:27:18;8.73;;;4.82;;
14414;SDS011;7307;50.852;4.314;2022-07-30T03:29:46;9.05;;;5.22;;
14414;SDS011;7307;50.852;4.314;2022-07-30T03:32:13;10.15;;;5.70;;
14414;SDS011;7307;50.852;4.314;2022-07-30T03:34:39;6.50;;;5.30;;
14414;SDS011;7307;50.852;4.314;2022-07-30T03:37:06;13.98;;;6.55;;
14414;SDS011;7307;50.852;4.314;2022-07-30T03:39:33;9.95;;;6.07;;
14414;SDS011;7307;50.852;4.314;2022-07-30T03:42:01;12.80;;;6.65;;
14414;SDS011;7307;50.852;4.314;2022-07-30T03:44:28;11.32;;;7.07;;
14414;SDS011;7307;50.852;4.314;2022-07-30T03:46:54;12.27;;;7.32;;
14414;SDS011;7307;50.852;4.314;2022-07-30T03:49:22;10.95;;;6.88;;
14414;SDS011;7307;50.852;4.314;2022-07-30T03:51:49;9.60;;;7.28;;
14414;SDS011;7307;50.852;4.314;2022-07-30T03:54:16;11.63;;;7.13;;
14414;SDS011;7307;50.852;4.314;2022-07-30T03:56:42;10.65;;;7.00;;
14414;SDS011;7307;50.852;4.314;2022-07-30T03:59:09;9.23;;;6.85;;
14414;SDS011;7307;50.852;4.314;2022-07-30T04:01:37;11.75;;;8.20;;
14414;SDS011;7307;50.852;4.314;2022-07-30T04:04:03;10.25;;;7.03;;
14414;SDS011;7307;50.852;4.314;2022-07-30T04:06:33;9.90;;;7.53;;
14414;SDS011;7307;50.852;4.314;2022-07-30T04:09:04;12.98;;;7.78;;
14414;SDS011;7307;50.852;4.314;2022-07-30T04:11:31;10.50;;;6.88;;
14414;SDS011;7307;50.852;4.314;2022-07-30T04:13:56;11.77;;;7.53;;
14414;SDS011;7307;50.852;4.314;2022-07-30T04:16:30;9.90;;;7.88;;
14414;SDS011;7307;50.852;4.314;2022-07-30T04:19:01;10.63;;;7.75;;
14414;SDS011;7307;50.852;4.314;2022-07-30T04:21:30;11.40;;;7.90;;
14414;SDS011;7307;50.852;4.314;2022-07-30T04:23:57;9.50;;;7.38;;
14414;SDS011;7307;50.852;4.314;2022-07-30T04:26:26;13.93;;;7.45;;
14414;SDS011;7307;50.852;4.314;2022-07-30T04:28:55;9.35;;;7.70;;
14414;SDS011;7307;50.852;4.314;2022-07-30T04:31:21;11.60;;;8.07;;
14414;SDS011;7307;50.852;4.314;2022-07-30T04:33:47;11.95;;;7.88;;
14414;SDS011;7307;50.852;4.314;2022-07-30T04:36:13;12.63;;;8.50;;
14414;SDS011;7307;50.852;4.314;2022-07-30T04:38:38;11.88;;;7.65;;
14414;SDS011;7307;50.852;4.314;2022-07-30T04:41:04;11.80;;;8.95;;
14414;SDS011;7307;50.852;4.314;2022-07-30T04:43:30;12.50;;;8.70;;
14414;SDS011;7307;50.852;4.314;2022-07-30T04:45:55;11.00;;;7.63;;
14414;SDS011;7307;50.852;4.314;2022-07-30T04:48:21;10.25;;;7.40;;
14414;SDS011;7307;50.852;4.314;2022-07-30T04:50:48;12.27;;;7.93;;
14414;SDS011;7307;50.852;4.314;2022-07-30T04:53:15;11.07;;;7.55;;
14414;SDS011;7307;50.852;4.314;2022-07-30T04:55:43;9.18;;;7.20;;
14414;SDS011;7307;50.852;4.314;2022-07-30T04:58:12;10.23;;;7.43;;
14414;SDS011;7307;50.852;4.314;2022-07-30T05:00:40;11.02;;;7.93;;
14414;SDS011;7307;50.852;4.314;2022-07-30T05:03:06;9.57;;;7.30;;
14414;SDS011;7307;50.852;4.314;2022-07-30T05:05:36;10.68;;;7.05;;
14414;SDS011;7307;50.852;4.314;2022-07-30T05:08:03;11.40;;;7.70;;
14414;SDS011;7307;50.852;4.314;2022-07-30T05:10:29;11.07;;;7.72;;
14414;SDS011;7307;50.852;4.314;2022-07-30T05:12:55;11.40;;;7.85;;
14414;SDS011;7307;50.852;4.314;2022-07-30T05:15:20;10.77;;;7.50;;
14414;SDS011;7307;50.852;4.314;2022-07-30T05:17:46;10.00;;;7.03;;
14414;SDS011;7307;50.852;4.314;2022-07-30T05:20:12;11.90;;;7.93;;
14414;SDS011;7307;50.852;4.314;2022-07-30T05:22:38;8.38;;;7.03;;
14414;SDS011;7307;50.852;4.314;2022-07-30T05:25:04;11.07;;;7.85;;
14414;SDS011;7307;50.852;4.314;2022-07-30T05:27:29;12.18;;;7.95;;
14414;SDS011;7307;50.852;4.314;2022-07-30T05:29:55;11.02;;;7.35;;
14414;SDS011;7307;50.852;4.314;2022-07-30T05:32:21;9.45;;;7.03;;
14414;SDS011;7307;50.852;4.314;2022-07-30T05:34:46;10.77;;;7.35;;
14414;SDS011;7307;50.852;4.314;2022-07-30T05:37:12;10.32;;;7.47;;
14414;SDS011;7307;50.852;4.314;2022-07-30T05:39:38;11.90;;;7.45;;
14414;SDS011;7307;50.852;4.314;2022-07-30T05:42:04;14.13;;;7.78;;
14414;SDS011;7307;50.852;4.314;2022-07-30T05:44:29;11.43;;;7.07;;
14414;SDS011;7307;50.852;4.314;2022-07-30T05:46:55;9.80;;;7.03;;
14414;SDS011;7307;50.852;4.314;2022-07-30T05:49:20;12.15;;;7.28;;
14414;SDS011;7307;50.852;4.314;2022-07-30T05:51:46;10.50;;;6.63;;
14414;SDS011;7307;50.852;4.314;2022-07-30T05:54:12;11.68;;;7.03;;
14414;SDS011;7307;50.852;4.314;2022-07-30T05:56:37;9.32;;;6.72;;
14414;SDS011;7307;50.852;4.314;2022-07-30T05:59:04;9.25;;;7.00;;
14414;SDS011;7307;50.852;4.314;2022-07-30T06:01:30;10.98;;;7.05;;
14414;SDS011;7307;50.852;4.314;2022-07-30T06:03:56;10.15;;;6.30;;
14414;SDS011;7307;50.852;4.314;2022-07-30T06:06:21;7.28;;;6.22;;
14414;SDS011;7307;50.852;4.314;2022-07-30T06:08:47;9.63;;;6.45;;
14414;SDS011;7307;50.852;4.314;2022-07-30T06:11:14;12.35;;;7.05;;
14414;SDS011;7307;50.852;4.314;2022-07-30T06:13:39;9.93;;;7.03;;
14414;SDS011;7307;50.852;4.314;2022-07-30T06:16:05;10.82;;;7.18;;
14414;SDS011;7307;50.852;4.314;2022-07-30T06:18:31;8.38;;;6.32;;
14414;SDS011;7307;50.852;4.314;2022-07-30T06:20:56;10.93;;;6.65;;
14414;SDS011;7307;50.852;4.314;2022-07-30T06:23:22;9.20;;;6.40;;
14414;SDS011;7307;50.852;4.314;2022-07-30T06:25:48;8.85;;;6.65;;
14414;SDS011;7307;50.852;4.314;2022-07-30T06:28:14;10.93;;;5.63;;
14414;SDS011;7307;50.852;4.314;2022-07-30T06:30:41;7.65;;;5.85;;
14414;SDS011;7307;50.852;4.314;2022-07-30T06:33:12;10.43;;;5.82;;
14414;SDS011;7307;50.852;4.314;2022-07-30T06:35:37;6.97;;;5.00;;
14414;SDS011;7307;50.852;4.314;2022-07-30T06:38:03;9.68;;;5.63;;
14414;SDS011;7307;50.852;4.314;2022-07-30T06:40:28;9.75;;;5.25;;
14414;SDS011;7307;50.852;4.314;2022-07-30T06:42:54;7.68;;;4.70;;
14414;SDS011;7307;50.852;4.314;2022-07-30T06:45:20;6.28;;;4.88;;
14414;SDS011;7307;50.852;4.314;2022-07-30T06:47:45;8.05;;;4.78;;
14414;SDS011;7307;50.852;4.314;2022-07-30T06:50:11;6.95;;;4.28;;
14414;SDS011;7307;50.852;4.314;2022-07-30T06:52:37;9.05;;;4.43;;
14414;SDS011;7307;50.852;4.314;2022-07-30T06:55:02;6.72;;;3.90;;
14414;SDS011;7307;50.852;4.314;2022-07-30T06:57:28;6.78;;;3.85;;
14414;SDS011;7307;50.852;4.314;2022-07-30T06:59:54;5.80;;;3.53;;
14414;SDS011;7307;50.852;4.314;2022-07-30T07:02:20;10.55;;;3.78;;
14414;SDS011;7307;50.852;4.314;2022-07-30T07:04:45;6.00;;;3.17;;
14414;SDS011;7307;50.852;4.314;2022-07-30T07:07:11;9.02;;;3.67;;
14414;SDS011;7307;50.852;4.314;2022-07-30T07:09:36;6.20;;;2.92;;
14414;SDS011;7307;50.852;4.314;2022-07-30T07:12:02;7.13;;;3.20;;
14414;SDS011;7307;50.852;4.314;2022-07-30T07:14:28;5.68;;;2.95;;
14414;SDS011;7307;50.852;4.314;2022-07-30T07:16:53;4.43;;;2.58;;
14414;SDS011;7307;50.852;4.314;2022-07-30T07:19:19;7.25;;;4.10;;
14414;SDS011;7307;50.852;4.314;2022-07-30T07:21:45;6.32;;;3.55;;
14414;SDS011;7307;50.852;4.314;2022-07-30T07:24:10;5.05;;;2.85;;
14414;SDS011;7307;50.852;4.314;2022-07-30T07:26:36;4.38;;;2.50;;
14414;SDS011;7307;50.852;4.314;2022-07-30T07:29:01;5.32;;;2.90;;
14414;SDS011;7307;50.852;4.314;2022-07-30T07:31:27;3.83;;;2.20;;
14414;SDS011;7307;50.852;4.314;2022-07-30T07:33:53;7.32;;;2.55;;
14414;SDS011;7307;50.852;4.314;2022-07-30T07:36:19;7.55;;;2.40;;
14414;SDS011;7307;50.852;4.314;2022-07-30T07:38:48;5.30;;;2.40;;
14414;SDS011;7307;50.852;4.314;2022-07-30T07:41:14;4.63;;;2.40;;
14414;SDS011;7307;50.852;4.314;2022-07-30T07:43:40;5.95;;;2.47;;
14414;SDS011;7307;50.852;4.314;2022-07-30T07:46:06;3.97;;;2.08;;
14414;SDS011;7307;50.852;4.314;2022-07-30T07:48:32;5.78;;;2.22;;
14414;SDS011;7307;50.852;4.314;2022-07-30T07:50:58;2.33;;;1.63;;
14414;SDS011;7307;50.852;4.314;2022-07-30T07:53:24;4.20;;;2.00;;
14414;SDS011;7307;50.852;4.314;2022-07-30T07:55:50;5.72;;;1.90;;
14414;SDS011;7307;50.852;4.314;2022-07-30T07:58:16;6.50;;;2.10;;
14414;SDS011;7307;50.852;4.314;2022-07-30T08:00:42;2.45;;;1.85;;
14414;SDS011;7307;50.852;4.314;2022-07-30T08:03:07;4.30;;;1.80;;
14414;SDS011;7307;50.852;4.314;2022-07-30T08:05:33;3.40;;;1.70;;
14414;SDS011;7307;50.852;4.314;2022-07-30T08:07:59;4.80;;;1.90;;
14414;SDS011;7307;50.852;4.314;2022-07-30T08:10:25;5.97;;;1.50;;
14414;SDS011;7307;50.852;4.314;2022-07-30T08:12:51;4.30;;;1.40;;
14414;SDS011;7307;50.852;4.314;2022-07-30T08:15:17;5.00;;;1.70;;
14414;SDS011;7307;50.852;4.314;2022-07-30T08:17:45;5.85;;;2.00;;
14414;SDS011;7307;50.852;4.314;2022-07-30T08:20:11;5.57;;;2.25;;
14414;SDS011;7307;50.852;4.314;2022-07-30T08:22:38;6.43;;;1.63;;
14414;SDS011;7307;50.852;4.314;2022-07-30T08:25:04;6.43;;;1.90;;
14414;SDS011;7307;50.852;4.314;2022-07-30T08:27:30;4.22;;;1.50;;
14414;SDS011;7307;50.852;4.314;2022-07-30T08:29:56;3.92;;;1.85;;
14414;SDS011;7307;50.852;4.314;2022-07-30T08:32:22;3.67;;;1.55;;
14414;SDS011;7307;50.852;4.314;2022-07-30T08:34:50;4.72;;;2.10;;
14414;SDS011;7307;50.852;4.314;2022-07-30T08:37:16;3.40;;;1.67;;
14414;SDS011;7307;50.852;4.314;2022-07-30T08:39:42;2.25;;;1.48;;
14414;SDS011;7307;50.852;4.314;2022-07-30T08:42:07;1.65;;;1.25;;
14414;SDS011;7307;50.852;4.314;2022-07-30T08:44:34;7.72;;;1.90;;
14414;SDS011;7307;50.852;4.314;2022-07-30T08:47:00;3.65;;;1.70;;
14414;SDS011;7307;50.852;4.314;2022-07-30T08:49:27;3.28;;;1.58;;
14414;SDS011;7307;50.852;4.314;2022-07-30T08:51:52;5.43;;;1.73;;
14414;SDS011;7307;50.852;4.314;2022-07-30T08:54:19;3.55;;;1.52;;
14414;SDS011;7307;50.852;4.314;2022-07-30T08:56:45;2.65;;;1.50;;
14414;SDS011;7307;50.852;4.314;2022-07-30T08:59:13;3.55;;;1.60;;
14414;SDS011;7307;50.852;4.314;2022-07-30T09:01:41;6.97;;;2.00;;
14414;SDS011;7307;50.852;4.314;2022-07-30T09:04:07;5.43;;;1.98;;
14414;SDS011;7307;50.852;4.314;2022-07-30T09:06:33;10.73;;;2.95;;
14414;SDS011;7307;50.852;4.314;2022-07-30T09:08:59;6.88;;;2.10;;
14414;SDS011;7307;50.852;4.314;2022-07-30T09:11:25;4.00;;;1.80;;
14414;SDS011;7307;50.852;4.314;2022-07-30T09:13:51;6.60;;;1.83;;
14414;SDS011;7307;50.852;4.314;2022-07-30T09:16:17;3.40;;;1.80;;
14414;SDS011;7307;50.852;4.314;2022-07-30T09:18:50;2.20;;;1.35;;
14414;SDS011;7307;50.852;4.314;2022-07-30T09:21:24;3.05;;;1.50;;
14414;SDS011;7307;50.852;4.314;2022-07-30T09:29:28;7.50;;;3.13;;
14414;SDS011;7307;50.852;4.314;2022-07-30T09:34:31;7.13;;;2.78;;
14414;SDS011;7307;50.852;4.314;2022-07-30T09:37:03;5.05;;;2.65;;
14414;SDS011;7307;50.852;4.314;2022-07-30T09:39:40;8.63;;;2.78;;
14414;SDS011;7307;50.852;4.314;2022-07-30T09:42:18;4.57;;;2.78;;
14414;SDS011;7307;50.852;4.314;2022-07-30T09:44:45;5.82;;;2.90;;
14414;SDS011;7307;50.852;4.314;2022-07-30T09:47:54;4.70;;;2.88;;
14414;SDS011;7307;50.852;4.314;2022-07-30T09:52:38;7.85;;;3.42;;
14414;SDS011;7307;50.852;4.314;2022-07-30T09:55:06;6.13;;;3.25;;
14414;SDS011;7307;50.852;4.314;2022-07-30T09:57:32;6.18;;;4.22;;
14414;SDS011;7307;50.852;4.314;2022-07-30T10:00:15;11.50;;;4.40;;
14414;SDS011;7307;50.852;4.314;2022-07-30T10:02:44;11.23;;;4.30;;
14414;SDS011;7307;50.852;4.314;2022-07-30T10:05:12;17.50;;;5.85;;
14414;SDS011;7307;50.852;4.314;2022-07-30T10:07:40;18.77;;;6.38;;
14414;SDS011;7307;50.852;4.314;2022-07-30T10:10:16;18.20;;;6.25;;
14414;SDS011;7307;50.852;4.314;2022-07-30T10:12:44;17.90;;;7.13;;
14414;SDS011;7307;50.852;4.314;2022-07-30T10:15:11;17.30;;;7.22;;
14414;SDS011;7307;50.852;4.314;2022-07-30T10:17:39;17.13;;;6.68;;
14414;SDS011;7307;50.852;4.314;2022-07-30T10:20:06;21.25;;;7.47;;
14414;SDS011;7307;50.852;4.314;2022-07-30T10:22:33;16.10;;;6.35;;
14414;SDS011;7307;50.852;4.314;2022-07-30T10:25:00;15.50;;;5.55;;
14414;SDS011;7307;50.852;4.314;2022-07-30T10:27:27;9.70;;;4.20;;
14414;SDS011;7307;50.852;4.314;2022-07-30T10:29:52;11.25;;;4.38;;
14414;SDS011;7307;50.852;4.314;2022-07-30T10:32:19;9.90;;;4.80;;
14414;SDS011;7307;50.852;4.314;2022-07-30T10:34:45;12.40;;;5.15;;
14414;SDS011;7307;50.852;4.314;2022-07-30T10:37:11;13.00;;;4.55;;
14414;SDS011;7307;50.852;4.314;2022-07-30T10:39:50;27.88;;;8.18;;
14414;SDS011;7307;50.852;4.314;2022-07-30T10:48:37;19.13;;;5.15;;
14414;SDS011;7307;50.852;4.314;2022-07-30T10:51:03;26.55;;;5.90;;
14414;SDS011;7307;50.852;4.314;2022-07-30T10:53:45;20.15;;;5.78;;
14414;SDS011;7307;50.852;4.314;2022-07-30T10:59:06;16.17;;;4.85;;
14414;SDS011;7307;50.852;4.314;2022-07-30T11:09:53;14.40;;;4.03;;
14414;SDS011;7307;50.852;4.314;2022-07-30T11:15:12;8.18;;;3.47;;
14414;SDS011;7307;50.852;4.314;2022-07-30T11:20:30;8.23;;;2.92;;
14414;SDS011;7307;50.852;4.314;2022-07-30T11:26:02;8.43;;;3.08;;
14414;SDS011;7307;50.852;4.314;2022-07-30T11:28:35;9.23;;;3.22;;
14414;SDS011;7307;50.852;4.314;2022-07-30T11:31:03;8.38;;;2.88;;
14414;SDS011;7307;50.852;4.314;2022-07-30T11:33:48;8.90;;;3.05;;
14414;SDS011;7307;50.852;4.314;2022-07-30T11:36:14;9.02;;;3.42;;
14414;SDS011;7307;50.852;4.314;2022-07-30T11:38:50;6.25;;;3.05;;
14414;SDS011;7307;50.852;4.314;2022-07-30T11:41:16;7.00;;;2.88;;
14414;SDS011;7307;50.852;4.314;2022-07-30T11:43:42;6.97;;;3.05;;
14414;SDS011;7307;50.852;4.314;2022-07-30T11:46:12;7.30;;;2.75;;
14414;SDS011;7307;50.852;4.314;2022-07-30T11:48:39;5.32;;;2.72;;
14414;SDS011;7307;50.852;4.314;2022-07-30T11:51:07;4.95;;;2.25;;
14414;SDS011;7307;50.852;4.314;2022-07-30T11:53:33;8.38;;;2.58;;
14414;SDS011;7307;50.852;4.314;2022-07-30T11:56:00;7.45;;;2.35;;
14414;SDS011;7307;50.852;4.314;2022-07-30T11:58:28;4.80;;;2.30;;
14414;SDS011;7307;50.852;4.314;2022-07-30T12:03:31;6.57;;;2.28;;
14414;SDS011;7307;50.852;4.314;2022-07-30T12:06:04;4.35;;;1.92;;
14414;SDS011;7307;50.852;4.314;2022-07-30T12:08:38;3.33;;;2.03;;
14414;SDS011;7307;50.852;4.314;2022-07-30T12:11:07;4.60;;;2.38;;
14414;SDS011;7307;50.852;4.314;2022-07-30T12:13:33;4.18;;;2.10;;
14414;SDS011;7307;50.852;4.314;2022-07-30T12:16:00;9.70;;;2.15;;
14414;SDS011;7307;50.852;4.314;2022-07-30T12:18:31;4.15;;;2.03;;
14414;SDS011;7307;50.852;4.314;2022-07-30T12:21:00;4.80;;;2.33;;
14414;SDS011;7307;50.852;4.314;2022-07-30T12:23:27;4.25;;;1.88;;
14414;SDS011;7307;50.852;4.314;2022-07-30T12:25:56;6.03;;;2.50;;
14414;SDS011;7307;50.852;4.314;2022-07-30T12:28:29;4.07;;;2.05;;
14414;SDS011;7307;50.852;4.314;2022-07-30T12:30:57;5.90;;;2.17;;
14414;SDS011;7307;50.852;4.314;2022-07-30T12:33:24;3.60;;;2.20;;
14414;SDS011;7307;50.852;4.314;2022-07-30T12:38:20;3.10;;;2.25;;
14414;SDS011;7307;50.852;4.314;2022-07-30T12:40:55;6.38;;;2.20;;
14414;SDS011;7307;50.852;4.314;2022-07-30T12:43:44;5.75;;;2.20;;
14414;SDS011;7307;50.852;4.314;2022-07-30T12:46:15;4.20;;;2.10;;
14414;SDS011;7307;50.852;4.314;2022-07-30T12:48:54;4.43;;;1.60;;
14414;SDS011;7307;50.852;4.314;2022-07-30T12:51:24;3.42;;;2.20;;
14414;SDS011;7307;50.852;4.314;2022-07-30T12:53:54;2.55;;;1.80;;
14414;SDS011;7307;50.852;4.314;2022-07-30T12:56:23;4.93;;;2.17;;
14414;SDS011;7307;50.852;4.314;2022-07-30T12:58:53;4.72;;;2.45;;
14414;SDS011;7307;50.852;4.314;2022-07-30T13:01:40;4.55;;;2.13;;
14414;SDS011;7307;50.852;4.314;2022-07-30T13:04:11;5.95;;;2.45;;
14414;SDS011;7307;50.852;4.314;2022-07-30T13:06:38;6.65;;;2.63;;
14414;SDS011;7307;50.852;4.314;2022-07-30T13:09:05;8.07;;;2.20;;
14414;SDS011;7307;50.852;4.314;2022-07-30T13:11:42;6.43;;;2.10;;
14414;SDS011;7307;50.852;4.314;2022-07-30T13:14:09;5.88;;;1.90;;
14414;SDS011;7307;50.852;4.314;2022-07-30T13:16:36;4.47;;;1.73;;
14414;SDS011;7307;50.852;4.314;2022-07-30T13:19:03;4.55;;;2.25;;
14414;SDS011;7307;50.852;4.314;2022-07-30T13:21:35;4.55;;;2.15;;
14414;SDS011;7307;50.852;4.314;2022-07-30T13:24:02;3.13;;;1.85;;
14414;SDS011;7307;50.852;4.314;2022-07-30T13:26:28;4.22;;;2.28;;
14414;SDS011;7307;50.852;4.314;2022-07-30T13:28:54;3.42;;;1.80;;
14414;SDS011;7307;50.852;4.314;2022-07-30T13:31:21;2.92;;;1.70;;
14414;SDS011;7307;50.852;4.314;2022-07-30T13:33:47;4.15;;;2.00;;
14414;SDS011;7307;50.852;4.314;2022-07-30T13:36:14;4.50;;;1.88;;
14414;SDS011;7307;50.852;4.314;2022-07-30T13:38:40;4.93;;;2.00;;
14414;SDS011;7307;50.852;4.314;2022-07-30T13:41:06;5.30;;;1.77;;
14414;SDS011;7307;50.852;4.314;2022-07-30T13:43:32;2.75;;;1.70;;
14414;SDS011;7307;50.852;4.314;2022-07-30T13:45:58;4.07;;;2.15;;
14414;SDS011;7307;50.852;4.314;2022-07-30T13:48:27;6.72;;;2.15;;
14414;SDS011;7307;50.852;4.314;2022-07-30T13:50:53;4.07;;;1.77;;
14414;SDS011;7307;50.852;4.314;2022-07-30T13:53:19;3.40;;;1.83;;
14414;SDS011;7307;50.852;4.314;2022-07-30T13:55:44;3.10;;;1.90;;
14414;SDS011;7307;50.852;4.314;2022-07-30T13:58:10;4.10;;;1.83;;
14414;SDS011;7307;50.852;4.314;2022-07-30T14:00:37;3.72;;;1.95;;
14414;SDS011;7307;50.852;4.314;2022-07-30T14:03:07;2.22;;;1.98;;
14414;SDS011;7307;50.852;4.314;2022-07-30T14:05:34;2.85;;;1.63;;
14414;SDS011;7307;50.852;4.314;2022-07-30T14:08:01;2.65;;;1.95;;
14414;SDS011;7307;50.852;4.314;2022-07-30T14:10:28;3.20;;;1.73;;
14414;SDS011;7307;50.852;4.314;2022-07-30T14:12:54;4.05;;;1.92;;
14414;SDS011;7307;50.852;4.314;2022-07-30T14:15:21;2.55;;;1.50;;
14414;SDS011;7307;50.852;4.314;2022-07-30T14:17:48;2.95;;;1.80;;
14414;SDS011;7307;50.852;4.314;2022-07-30T14:20:13;2.42;;;1.77;;
14414;SDS011;7307;50.852;4.314;2022-07-30T14:22:39;2.03;;;1.73;;
14414;SDS011;7307;50.852;4.314;2022-07-30T14:25:05;3.78;;;1.90;;
14414;SDS011;7307;50.852;4.314;2022-07-30T14:27:31;3.28;;;1.55;;
14414;SDS011;7307;50.852;4.314;2022-07-30T14:29:57;2.47;;;1.70;;
14414;SDS011;7307;50.852;4.314;2022-07-30T14:32:23;2.17;;;1.63;;
14414;SDS011;7307;50.852;4.314;2022-07-30T14:34:48;2.08;;;1.65;;
14414;SDS011;7307;50.852;4.314;2022-07-30T14:37:14;2.60;;;1.60;;
14414;SDS011;7307;50.852;4.314;2022-07-30T14:39:43;3.58;;;1.85;;
14414;SDS011;7307;50.852;4.314;2022-07-30T14:42:09;2.45;;;1.80;;
14414;SDS011;7307;50.852;4.314;2022-07-30T14:44:35;2.65;;;1.80;;
14414;SDS011;7307;50.852;4.314;2022-07-30T14:47:01;4.47;;;1.95;;
14414;SDS011;7307;50.852;4.314;2022-07-30T14:49:27;3.22;;;1.88;;
14414;SDS011;7307;50.852;4.314;2022-07-30T14:51:53;3.75;;;1.98;;
14414;SDS011;7307;50.852;4.314;2022-07-30T14:54:19;5.10;;;1.80;;
14414;SDS011;7307;50.852;4.314;2022-07-30T14:56:45;4.68;;;1.83;;
14414;SDS011;7307;50.852;4.314;2022-07-30T14:59:11;2.20;;;1.70;;
14414;SDS011;7307;50.852;4.314;2022-07-30T15:01:36;4.03;;;1.85;;
14414;SDS011;7307;50.852;4.314;2022-07-30T15:04:02;2.72;;;1.63;;
14414;SDS011;7307;50.852;4.314;2022-07-30T15:06:28;2.47;;;1.65;;
14414;SDS011;7307;50.852;4.314;2022-07-30T15:08:53;2.50;;;1.48;;
14414;SDS011;7307;50.852;4.314;2022-07-30T15:11:19;3.65;;;1.55;;
14414;SDS011;7307;50.852;4.314;2022-07-30T15:13:45;3.88;;;1.50;;
14414;SDS011;7307;50.852;4.314;2022-07-30T15:16:11;3.65;;;1.98;;
14414;SDS011;7307;50.852;4.314;2022-07-30T15:18:37;3.65;;;1.90;;
14414;SDS011;7307;50.852;4.314;2022-07-30T15:21:03;2.30;;;1.55;;
14414;SDS011;7307;50.852;4.314;2022-07-30T15:23:28;4.13;;;2.03;;
14414;SDS011;7307;50.852;4.314;2022-07-30T15:25:54;2.25;;;1.55;;
14414;SDS011;7307;50.852;4.314;2022-07-30T15:28:19;1.60;;;1.40;;
14414;SDS011;7307;50.852;4.314;2022-07-30T15:30:46;1.73;;;1.45;;
14414;SDS011;7307;50.852;4.314;2022-07-30T15:33:12;1.90;;;1.65;;
14414;SDS011;7307;50.852;4.314;2022-07-30T15:35:37;2.08;;;1.70;;
14414;SDS011;7307;50.852;4.314;2022-07-30T15:38:03;3.38;;;1.70;;
14414;SDS011;7307;50.852;4.314;2022-07-30T15:40:29;1.73;;;1.25;;
14414;SDS011;7307;50.852;4.314;2022-07-30T15:42:54;2.22;;;1.58;;
14414;SDS011;7307;50.852;4.314;2022-07-30T15:45:20;2.28;;;1.70;;
14414;SDS011;7307;50.852;4.314;2022-07-30T15:47:48;1.45;;;1.30;;